Time;durP1;ratioP1;P1;durP2;ratioP2;P2;SDS_P1;SDS_P2;PMS_P1;PMS_P2;Temp;Humidity;BMP_temperature;BMP_pressure;BME280_temperature;BME280_humidity;BME280_pressure;Samples;Min_cycle;Max_cycle;Signal;HPM_P1;HPM_P2
2022/06/17 00:01:12;;;;;;;;;;;;;;;14.91;52.05;100827.34;1784460;80;20251;-56
2022/06/17 00:04:17;;;;;;;;;;;;;;;14.88;52.22;100823.59;1784376;80;20203;-56
2022/06/17 00:07:21;;;;;;;;;;;;;;;14.83;52.28;100827.45;1784553;80;20187;-56
2022/06/17 00:10:29;;;;;;;;;;;;;;;14.79;52.44;100830.27;1784477;80;20199;-56
2022/06/17 00:13:34;;;;;;;;;;;;;;;14.77;52.55;100822.70;1784616;80;20220;-56
2022/06/17 00:16:38;;;;;;;;;;;;;;;14.75;52.70;100827.04;1784691;80;20250;-56
2022/06/17 00:19:43;;;;;;;;;;;;;;;14.72;52.80;100819.67;1764383;80;20266;-56
2022/06/17 00:22:49;;;;;;;;;;;;;;;14.71;52.96;100825.70;1784380;80;20226;-56
2022/06/17 00:25:55;;;;;;;;;;;;;;;14.69;53.03;100825.05;1784800;80;20297;-56
2022/06/17 00:28:59;;;;;;;;;;;;;;;14.69;53.16;100818.67;1784505;80;20235;-54
2022/06/17 00:32:05;;;;;;;;;;;;;;;14.67;53.22;100827.66;1784268;80;20185;-54
2022/06/17 00:35:11;;;;;;;;;;;;;;;14.64;53.34;100828.04;1784550;80;20202;-55
2022/06/17 00:38:20;;;;;;;;;;;;;;;14.59;53.37;100828.61;1784290;80;20201;-55
2022/06/17 00:41:32;;;;;;;;;;;;;;;14.53;53.44;100820.25;1784435;80;20195;-55
2022/06/17 00:44:58;;;;;;;;;;;;;;;14.53;53.66;100820.25;1784717;80;20267;-55
2022/06/17 00:48:06;;;;;;;;;;;;;;;14.52;53.88;100821.31;1761040;80;20250;-55
2022/06/17 00:51:14;;;;;;;;;;;;;;;14.53;53.95;100817.50;1784299;80;20535;-55
2022/06/17 00:54:26;;;;;;;;;;;;;;;14.49;53.99;100816.19;1784590;80;20215;-54
2022/06/17 00:57:38;;;;;;;;;;;;;;;14.46;54.07;100817.95;1784718;80;20250;-55
2022/06/17 01:00:44;;;;;;;;;;;;;;;14.43;54.23;100819.16;1784407;80;20527;-57
2022/06/17 01:03:49;;;;;;;;;;;;;;;14.43;54.36;100812.83;1784515;80;20214;-55
2022/06/17 01:06:58;;;;;;;;;;;;;;;14.41;54.49;100817.11;1784633;80;20483;-55
2022/06/17 01:10:09;;;;;;;;;;;;;;;14.41;54.60;100817.11;1784385;80;20660;-55
2022/06/17 01:13:13;;;;;;;;;;;;;;;14.39;54.70;100811.47;1784470;80;20548;-54
2022/06/17 01:16:17;;;;;;;;;;;;;;;14.40;54.76;100824.19;1784096;80;20214;-56
2022/06/17 01:19:39;;;;;;;;;;;;;;;14.39;54.84;100819.73;1784567;80;20238;-56
2022/06/17 01:22:50;;;;;;;;;;;;;;;14.38;54.90;100823.00;1784536;80;20203;-56
2022/06/17 01:25:55;;;;;;;;;;;;;;;14.35;54.87;100822.02;1773764;80;20219;-55
2022/06/17 01:28:59;;;;;;;;;;;;;;;14.33;54.92;100820.50;1779613;80;20259;-55
2022/06/17 01:32:04;;;;;;;;;;;;;;;14.30;54.92;100824.47;1779846;80;20187;-56
2022/06/17 01:35:11;;;;;;;;;;;;;;;14.30;55.08;100825.02;1779243;80;20223;-55
2022/06/17 01:38:17;;;;;;;;;;;;;;;14.30;55.24;100821.72;1779286;80;20179;-55
2022/06/17 01:41:21;;;;;;;;;;;;;;;14.32;55.37;100821.53;1779491;80;20227;-55
2022/06/17 01:44:35;;;;;;;;;;;;;;;14.35;55.44;100829.44;1779217;80;20223;-56
2022/06/17 01:47:37;;;;;;;;;;;;;;;14.37;55.51;100827.33;1779352;80;20207;-55
2022/06/17 01:50:41;;;;;;;;;;;;;;;14.39;55.55;100823.87;1779327;80;20584;-55
2022/06/17 01:53:49;;;;;;;;;;;;;;;14.42;55.58;100825.73;1784191;79;20183;-55
2022/06/17 01:56:54;;;;;;;;;;;;;;;14.44;55.62;100822.27;1767828;80;20186;-56
2022/06/17 02:00:08;;;;;;;;;;;;;;;14.47;55.70;100818.27;1714367;84;20636;-55
2022/06/17 02:03:26;;;;;;;;;;;;;;;14.51;55.73;100822.34;1763550;81;20275;-55
2022/06/17 02:06:39;;;;;;;;;;;;;;;14.53;55.80;100816.13;1782514;80;20279;-56
2022/06/17 02:09:43;;;;;;;;;;;;;;;14.56;55.83;100809.72;1782368;80;20231;-56
2022/06/17 02:12:48;;;;;;;;;;;;;;;14.60;55.91;100812.41;1782448;80;20204;-55
2022/06/17 02:15:55;;;;;;;;;;;;;;;14.63;55.95;100811.19;1781548;80;20203;-55
2022/06/17 02:19:16;;;;;;;;;;;;;;;14.67;55.97;100809.73;1769837;81;20188;-55
2022/06/17 02:22:29;;;;;;;;;;;;;;;14.71;56.04;100810.54;1763499;81;20204;-55
2022/06/17 02:25:34;;;;;;;;;;;;;;;14.74;56.06;100812.08;1764477;81;20240;-55
2022/06/17 02:28:38;;;;;;;;;;;;;;;14.72;55.97;100808.65;1764252;80;20196;-55
2022/06/17 02:31:47;;;;;;;;;;;;;;;14.69;55.91;100811.79;1764145;80;20231;-56
2022/06/17 02:34:59;;;;;;;;;;;;;;;14.68;56.00;100814.23;1764104;80;20192;-55
2022/06/17 02:38:02;;;;;;;;;;;;;;;14.69;56.20;100808.52;1763965;81;20528;-55
2022/06/17 02:41:09;;;;;;;;;;;;;;;14.73;56.35;100809.83;1792486;80;20195;-55
2022/06/17 02:44:20;;;;;;;;;;;;;;;14.78;56.43;100813.38;1793953;80;20234;-55
2022/06/17 02:47:27;;;;;;;;;;;;;;;14.83;56.48;100809.53;1794004;80;20191;-55
2022/06/17 02:50:33;;;;;;;;;;;;;;;14.86;56.52;100808.62;1778164;80;20215;-54
2022/06/17 02:53:42;;;;;;;;;;;;;;;14.87;56.41;100809.49;1774800;80;20180;-54
2022/06/17 02:56:48;;;;;;;;;;;;;;;14.90;56.39;100814.62;1744559;82;20546;-55
2022/06/17 02:59:56;;;;;;;;;;;;;;;14.94;56.52;100814.03;1741737;82;20194;-54
2022/06/17 03:03:07;;;;;;;;;;;;;;;14.98;56.62;100810.37;1744879;82;20241;-54
2022/06/17 03:06:14;;;;;;;;;;;;;;;15.03;56.68;100815.62;1744647;82;20198;-54
2022/06/17 03:09:31;;;;;;;;;;;;;;;15.08;56.70;100817.78;1720310;82;20194;-55
2022/06/17 03:12:35;;;;;;;;;;;;;;;15.15;56.73;100822.88;1744592;82;20210;-54
2022/06/17 03:15:41;;;;;;;;;;;;;;;15.23;56.75;100817.75;1743998;82;20222;-54
2022/06/17 03:18:47;;;;;;;;;;;;;;;15.31;56.79;100811.59;1744469;82;20225;-54
2022/06/17 03:21:52;;;;;;;;;;;;;;;15.40;56.81;100813.20;1744454;82;20238;-53
2022/06/17 03:25:00;;;;;;;;;;;;;;;15.51;56.86;100815.44;1752905;82;20198;-54
2022/06/17 03:28:14;;;;;;;;;;;;;;;15.64;56.88;100815.58;1744038;82;20206;-54
2022/06/17 03:31:41;;;;;;;;;;;;;;;15.80;56.91;100814.44;1743995;82;20230;-54
2022/06/17 03:34:59;;;;;;;;;;;;;;;15.95;56.87;100809.15;1742888;82;20221;-54
2022/06/17 03:38:07;;;;;;;;;;;;;;;16.11;56.83;100803.33;1744459;82;20249;-54
2022/06/17 03:41:15;;;;;;;;;;;;;;;16.33;56.86;100802.20;1745068;82;20221;-53
2022/06/17 03:44:25;;;;;;;;;;;;;;;16.57;56.86;100806.97;1744591;82;20205;-54
2022/06/17 03:47:41;;;;;;;;;;;;;;;16.81;56.82;100800.92;1744729;82;20581;-54
2022/06/17 03:50:50;;;;;;;;;;;;;;;17.04;56.83;100798.14;1744130;82;20550;-54
2022/06/17 03:53:54;;;;;;;;;;;;;;;17.27;56.78;100798.63;1744717;82;20534;-55
2022/06/17 03:57:01;;;;;;;;;;;;;;;17.43;56.79;100784.41;1775245;81;20307;-54
2022/06/17 04:00:06;;;;;;;;;;;;;;;17.60;56.78;100800.13;1779546;81;20184;-54
2022/06/17 04:03:12;;;;;;;;;;;;;;;17.75;56.75;100793.84;1808391;78;20252;-55
2022/06/17 04:06:24;;;;;;;;;;;;;;;17.89;56.74;100793.63;1796999;80;20522;-54
2022/06/17 04:09:32;;;;;;;;;;;;;;;18.04;56.66;100787.02;1796963;80;20528;-54
2022/06/17 04:12:40;;;;;;;;;;;;;;;18.15;56.56;100791.39;1796967;80;20530;-54
2022/06/17 04:15:57;;;;;;;;;;;;;;;18.28;56.54;100791.38;1795813;79;20206;-55
2022/06/17 04:19:22;;;;;;;;;;;;;;;18.40;56.51;100781.35;1796999;80;20205;-55
2022/06/17 04:22:31;;;;;;;;;;;;;;;18.51;56.51;100787.61;1781400;80;20236;-54
2022/06/17 04:25:41;;;;;;;;;;;;;;;18.64;56.48;100788.11;1811399;79;20189;-54
2022/06/17 04:28:48;;;;;;;;;;;;;;;18.74;56.44;100785.73;1796932;80;20189;-55
2022/06/17 04:31:59;;;;;;;;;;;;;;;18.89;56.43;100791.84;1797075;80;20582;-54
2022/06/17 04:35:05;;;;;;;;;;;;;;;19.05;56.40;100790.83;1760739;81;20558;-54
2022/06/17 04:38:09;;;;;;;;;;;;;;;19.25;56.36;100790.70;1796824;80;20201;-54
2022/06/17 04:41:34;;;;;;;;;;;;;;;19.45;56.27;100787.84;1796963;80;20514;-55
2022/06/17 04:44:48;;;;;;;;;;;;;;;19.66;56.18;100791.67;1797045;80;20182;-55
2022/06/17 04:47:54;;;;;;;;;;;;;;;19.86;56.11;100789.58;1796588;80;20193;-54
2022/06/17 04:51:00;;;;;;;;;;;;;;;20.02;56.06;100784.84;1735115;82;20199;-54
2022/06/17 04:54:07;;;;;;;;;;;;;;;20.19;55.99;100783.22;1773838;79;20210;-55
2022/06/17 04:57:22;;;;;;;;;;;;;;;20.36;55.94;100783.79;1781303;79;20214;-56
2022/06/17 05:00:30;;;;;;;;;;;;;;;20.57;55.87;100779.72;1813517;77;20203;-56
2022/06/17 05:03:37;;;;;;;;;;;;;;;20.76;55.80;100772.54;1814842;78;20353;-55
2022/06/17 05:06:50;;;;;;;;;;;;;;;20.96;55.72;100772.33;1818200;77;20269;-55
2022/06/17 05:10:11;;;;;;;;;;;;;;;21.15;55.60;100774.00;1802107;78;20205;-56
2022/06/17 05:13:25;;;;;;;;;;;;;;;21.30;55.45;100775.81;1771402;80;20210;-56
2022/06/17 05:16:33;;;;;;;;;;;;;;;21.47;55.38;100777.41;1796544;78;20241;-55
2022/06/17 05:19:53;;;;;;;;;;;;;;;21.57;55.25;100777.66;1816590;78;20200;-55
2022/06/17 05:23:02;;;;;;;;;;;;;;;21.69;55.15;100777.99;1816198;78;20209;-55
2022/06/17 05:26:10;;;;;;;;;;;;;;;21.82;55.04;100772.24;1815152;78;20385;-55
2022/06/17 05:29:17;;;;;;;;;;;;;;;21.92;54.95;100773.91;1832662;77;20236;-56
2022/06/17 05:32:26;;;;;;;;;;;;;;;22.04;54.93;100773.36;1795271;79;20256;-57
2022/06/17 05:35:31;;;;;;;;;;;;;;;22.16;54.75;100777.56;1828360;77;20431;-56
2022/06/17 05:38:38;;;;;;;;;;;;;;;22.21;54.62;100771.55;1812271;77;20228;-56
2022/06/17 05:41:42;;;;;;;;;;;;;;;22.34;54.54;100775.20;1829204;77;20195;-56
2022/06/17 05:44:48;;;;;;;;;;;;;;;22.50;54.48;100767.50;1802446;78;20192;-56
2022/06/17 05:47:55;;;;;;;;;;;;;;;22.70;54.43;100769.37;1798489;79;20631;-56
2022/06/17 05:51:16;;;;;;;;;;;;;;;22.89;54.27;100764.79;1804710;79;20607;-56
2022/06/17 05:54:41;;;;;;;;;;;;;;;23.07;54.11;100767.95;1793376;78;20201;-56
2022/06/17 05:57:49;;;;;;;;;;;;;;;23.22;53.89;100764.92;1799948;78;20591;-54
2022/06/17 06:00:56;;;;;;;;;;;;;;;23.33;53.69;100761.80;1796093;79;20201;-56
2022/06/17 06:04:01;;;;;;;;;;;;;;;23.40;53.54;100762.51;1771324;81;20678;-56
2022/06/17 06:07:07;;;;;;;;;;;;;;;23.47;53.37;100759.85;1811255;77;20581;-56
2022/06/17 06:10:15;;;;;;;;;;;;;;;23.50;53.12;100764.08;1794581;77;20596;-55
2022/06/17 06:13:25;;;;;;;;;;;;;;;23.50;52.87;100759.88;1755929;80;20215;-55
2022/06/17 06:16:32;;;;;;;;;;;;;;;23.49;52.71;100760.45;1811139;78;20205;-55
2022/06/17 06:19:39;;;;;;;;;;;;;;;23.48;52.54;100753.72;1816677;77;20203;-55
2022/06/17 06:22:46;;;;;;;;;;;;;;;23.49;52.33;100749.81;1824622;77;20224;-55
2022/06/17 06:26:08;;;;;;;;;;;;;;;23.52;52.25;100745.98;1778659;80;20295;-55
2022/06/17 06:29:17;;;;;;;;;;;;;;;23.57;52.05;100742.42;1825720;77;20207;-55
2022/06/17 06:32:35;;;;;;;;;;;;;;;23.63;51.85;100738.07;1791580;79;20240;-55
2022/06/17 06:35:45;;;;;;;;;;;;;;;23.71;51.81;100740.99;1800945;78;20202;-55
2022/06/17 06:38:48;;;;;;;;;;;;;;;23.77;51.73;100732.98;1797370;79;20217;-54
2022/06/17 06:41:52;;;;;;;;;;;;;;;23.83;51.57;100730.59;1798952;78;20245;-55
2022/06/17 06:45:03;;;;;;;;;;;;;;;23.89;51.44;100735.17;1804530;78;20213;-54
2022/06/17 06:48:15;;;;;;;;;;;;;;;23.90;51.22;100730.40;1758723;78;20204;-52
2022/06/17 06:51:20;;;;;;;;;;;;;;;23.94;51.01;100735.25;1754302;80;20316;-53
2022/06/17 06:54:28;;;;;;;;;;;;;;;23.97;50.83;100725.53;1820097;77;20221;-50
2022/06/17 06:57:34;;;;;;;;;;;;;;;23.98;50.65;100721.62;1813674;77;20257;-52
2022/06/17 07:00:42;;;;;;;;;;;;;;;24.01;50.47;100720.56;1793009;79;20233;-53
2022/06/17 07:03:51;;;;;;;;;;;;;;;24.04;50.36;100720.62;1798285;78;20226;-55
2022/06/17 07:07:00;;;;;;;;;;;;;;;24.09;50.10;100720.67;1753251;80;20204;-56
2022/06/17 07:10:04;;;;;;;;;;;;;;;24.13;49.93;100724.67;1702524;83;20204;-53
2022/06/17 07:13:11;;;;;;;;;;;;;;;24.20;49.80;100721.13;1819384;77;20618;-54
2022/06/17 07:16:16;;;;;;;;;;;;;;;24.25;49.53;100720.66;1760690;78;20239;-55
2022/06/17 07:19:29;;;;;;;;;;;;;;;24.34;49.34;100720.52;1799841;79;20542;-55
2022/06/17 07:22:42;;;;;;;;;;;;;;;24.43;49.13;100724.59;1797998;78;20514;-56
2022/06/17 07:25:49;;;;;;;;;;;;;;;24.51;48.91;100715.75;1798586;78;20254;-56
2022/06/17 07:28:54;;;;;;;;;;;;;;;24.56;48.60;100711.59;1770166;79;20200;-55
2022/06/17 07:32:00;;;;;;;;;;;;;;;24.61;48.42;100718.66;1795402;78;20500;-55
2022/06/17 07:35:16;;;;;;;;;;;;;;;24.75;48.28;100713.00;1821517;78;20274;-54
2022/06/17 07:41:50;;;;;;;;;;;;;;;25.17;47.87;100706.23;1790809;78;20209;-52
2022/06/17 07:44:57;;;;;;;;;;;;;;;25.33;47.51;100714.23;1804132;78;20209;-54
2022/06/17 07:48:04;;;;;;;;;;;;;;;25.36;47.25;100714.59;1769563;78;20581;-53
2022/06/17 07:51:11;;;;;;;;;;;;;;;25.46;47.00;100706.84;1800182;77;20241;-53
2022/06/17 07:54:19;;;;;;;;;;;;;;;25.58;46.79;100701.36;1812475;78;20485;-53
2022/06/17 07:57:25;;;;;;;;;;;;;;;25.73;46.54;100697.84;1806612;79;20216;-54
2022/06/17 08:00:38;;;;;;;;;;;;;;;25.89;46.25;100696.86;1803507;77;20202;-55
2022/06/17 08:03:43;;;;;;;;;;;;;;;26.07;46.01;100690.30;1780113;80;20241;-55
2022/06/17 08:06:49;;;;;;;;;;;;;;;26.25;45.77;100701.65;1802674;77;20245;-56
2022/06/17 08:10:04;;;;;;;;;;;;;;;26.33;45.41;100699.73;1756970;81;20267;-54
2022/06/17 08:13:24;;;;;;;;;;;;;;;26.33;45.18;100688.51;1767267;81;20227;-56
2022/06/17 08:16:30;;;;;;;;;;;;;;;26.32;44.90;100704.50;1804216;78;20549;-56
2022/06/17 08:19:38;;;;;;;;;;;;;;;26.31;44.67;100700.56;1819975;77;20597;-55
2022/06/17 08:22:45;;;;;;;;;;;;;;;26.31;44.43;100699.16;1806011;77;20209;-59
2022/06/17 08:26:01;;;;;;;;;;;;;;;26.28;44.18;100703.91;1807242;77;20206;-59
2022/06/17 08:29:10;;;;;;;;;;;;;;;26.23;44.00;100710.89;1795767;77;20677;-56
2022/06/17 08:35:54;;;;;;;;;;;;;;;26.04;43.71;100708.22;1805774;78;20829;-56
2022/06/17 08:39:03;;;;;;;;;;;;;;;26.00;43.55;100705.69;1834493;78;20238;-55
2022/06/17 08:42:25;;;;;;;;;;;;;;;25.96;43.39;100707.28;1822374;77;20205;-56
2022/06/17 08:45:39;;;;;;;;;;;;;;;25.95;43.22;100710.67;1795945;78;20251;-56
2022/06/17 08:48:49;;;;;;;;;;;;;;;25.88;43.10;100703.57;1777010;81;20207;-58
2022/06/17 08:52:19;;;;;;;;;;;;;;;25.85;43.03;100709.72;1777895;80;20212;-58
2022/06/17 08:55:27;;;;;;;;;;;;;;;25.82;42.89;100707.45;1819734;77;20228;-55
2022/06/17 08:58:54;;;;;;;;;;;;;;;25.78;42.72;100707.72;1805662;77;20227;-57
2022/06/17 09:02:13;;;;;;;;;;;;;;;25.80;42.64;100702.11;1806265;78;20202;-57
2022/06/17 09:05:39;;;;;;;;;;;;;;;25.90;42.53;100702.75;1795025;77;20291;-52
2022/06/17 09:09:07;;;;;;;;;;;;;;;25.97;42.40;100700.58;1806309;79;20214;-54
2022/06/17 09:12:30;;;;;;;;;;;;;;;26.04;42.25;100699.26;1822592;78;20201;-53
2022/06/17 09:15:42;;;;;;;;;;;;;;;26.14;42.12;100698.48;1809078;78;20197;-54
2022/06/17 09:18:50;;;;;;;;;;;;;;;26.27;41.98;100700.83;1808513;78;20213;-53
2022/06/17 09:21:57;;;;;;;;;;;;;;;26.35;41.81;100704.53;1808507;78;20556;-53
2022/06/17 09:25:07;;;;;;;;;;;;;;;26.46;41.70;100703.47;1809083;78;20193;-53
2022/06/17 09:28:14;;;;;;;;;;;;;;;26.54;41.47;100704.91;1809154;79;20216;-54
2022/06/17 09:31:23;;;;;;;;;;;;;;;26.59;41.33;100696.52;1809735;79;20185;-53
2022/06/17 09:34:32;;;;;;;;;;;;;;;26.64;41.21;100696.00;1810989;78;20268;-53
2022/06/17 09:37:53;;;;;;;;;;;;;;;26.72;41.07;100696.06;1809690;78;20240;-54
2022/06/17 09:41:08;;;;;;;;;;;;;;;26.80;40.94;100695.54;1810105;79;20209;-53
2022/06/17 09:44:30;;;;;;;;;;;;;;;26.90;40.71;100694.16;1809804;78;20205;-53
2022/06/17 09:47:48;;;;;;;;;;;;;;;26.92;40.45;100694.73;1808512;79;20208;-54
2022/06/17 09:51:10;;;;;;;;;;;;;;;26.94;40.38;100689.69;1815022;77;20226;-54
2022/06/17 09:54:35;;;;;;;;;;;;;;;26.97;40.25;100690.53;1805700;78;20238;-54
2022/06/17 09:57:50;;;;;;;;;;;;;;;26.95;40.16;100691.36;1759396;79;20306;-54
2022/06/17 10:01:00;;;;;;;;;;;;;;;26.99;40.06;100689.13;1789852;80;20249;-55
2022/06/17 10:04:11;;;;;;;;;;;;;;;27.03;39.97;100689.42;1818121;79;20256;-51
2022/06/17 10:07:27;;;;;;;;;;;;;;;27.04;39.84;100690.55;1807322;79;20204;-53
2022/06/17 10:10:40;;;;;;;;;;;;;;;27.04;39.72;100692.52;1783436;80;20275;-53
2022/06/17 10:14:17;;;;;;;;;;;;;;;27.01;39.58;100682.67;1748503;79;20523;-54
2022/06/17 10:21:06;;;;;;;;;;;;;;;26.97;39.34;100681.55;1796231;79;20198;-54
2022/06/17 10:24:29;;;;;;;;;;;;;;;26.92;39.21;100675.91;1799898;78;20194;-52
2022/06/17 10:28:09;;;;;;;;;;;;;;;26.89;39.13;100677.87;1797257;78;20192;-52
2022/06/17 10:31:29;;;;;;;;;;;;;;;26.84;39.04;100668.56;1758947;81;20533;-54
2022/06/17 10:35:00;;;;;;;;;;;;;;;26.77;38.88;100668.81;1764704;81;20211;-51
2022/06/17 10:38:05;;;;;;;;;;;;;;;26.71;38.85;100662.04;1721042;83;20188;-53
2022/06/17 10:41:10;;;;;;;;;;;;;;;26.66;38.80;100664.27;1719912;83;20187;-54
2022/06/17 10:44:22;;;;;;;;;;;;;;;26.64;38.74;100658.08;1722899;82;20212;-53
2022/06/17 10:47:36;;;;;;;;;;;;;;;26.61;38.67;100660.00;1723829;82;20216;-53
2022/06/17 10:50:41;;;;;;;;;;;;;;;26.59;38.65;100653.84;1742537;82;20244;-53
2022/06/17 10:53:51;;;;;;;;;;;;;;;26.54;38.59;100648.74;1725342;82;20209;-54
2022/06/17 10:57:09;;;;;;;;;;;;;;;26.51;38.60;100643.13;1707717;84;20585;-54
2022/06/17 11:00:32;;;;;;;;;;;;;;;26.50;38.60;100647.03;1707363;84;20613;-54
2022/06/17 11:03:42;;;;;;;;;;;;;;;26.54;38.66;100632.74;1707182;84;20508;-54
2022/06/17 11:06:59;;;;;;;;;;;;;;;26.62;38.65;100639.23;1706705;84;20212;-53
2022/06/17 11:10:08;;;;;;;;;;;;;;;26.74;38.56;100633.39;1707215;84;20576;-54
2022/06/17 11:13:14;;;;;;;;;;;;;;;26.84;38.44;100625.86;1707010;84;20223;-56
2022/06/17 11:16:23;;;;;;;;;;;;;;;26.88;38.31;100626.98;1707474;84;20220;-54
2022/06/17 11:19:31;;;;;;;;;;;;;;;26.92;38.26;100625.88;1719628;82;20209;-56
2022/06/17 11:22:39;;;;;;;;;;;;;;;26.89;38.19;100624.48;1742889;82;20206;-53
2022/06/17 11:25:46;;;;;;;;;;;;;;;26.75;38.13;100622.46;1746676;82;20205;-54
2022/06/17 11:28:54;;;;;;;;;;;;;;;26.57;38.13;100620.95;1748328;82;20233;-54
2022/06/17 11:32:00;;;;;;;;;;;;;;;26.33;38.10;100608.48;1722369;82;20583;-54
2022/06/17 11:35:28;;;;;;;;;;;;;;;26.15;38.22;100606.99;1722858;83;20570;-54
2022/06/17 11:38:50;;;;;;;;;;;;;;;26.05;38.34;100610.31;1731891;82;20455;-53
2022/06/17 11:42:27;;;;;;;;;;;;;;;26.04;38.41;100605.80;1737885;81;20254;-54
2022/06/17 11:45:46;;;;;;;;;;;;;;;26.05;38.35;100606.10;1729423;82;20217;-54
2022/06/17 11:48:55;;;;;;;;;;;;;;;26.00;38.38;100599.05;1733095;82;20472;-53
2022/06/17 11:52:04;;;;;;;;;;;;;;;26.23;38.52;100600.86;1731395;82;20206;-54
2022/06/17 11:55:11;;;;;;;;;;;;;;;26.58;38.53;100598.76;1732282;82;20490;-54
2022/06/17 11:58:19;;;;;;;;;;;;;;;26.95;38.53;100600.02;1734068;80;20207;-54
2022/06/17 12:01:23;;;;;;;;;;;;;;;27.33;38.47;100591.11;1745363;81;20486;-54
2022/06/17 12:04:59;;;;;;;;;;;;;;;27.68;38.35;100586.33;1742408;80;20245;-54
2022/06/17 12:08:14;;;;;;;;;;;;;;;27.78;37.96;100577.86;1754984;80;20245;-53
2022/06/17 12:11:19;;;;;;;;;;;;;;;27.59;37.66;100571.12;1752634;81;20209;-54
2022/06/17 12:14:32;;;;;;;;;;;;;;;27.52;37.64;100579.58;1753430;82;20305;-54
2022/06/17 12:17:38;;;;;;;;;;;;;;;27.49;37.60;100589.44;1753125;82;20254;-53
2022/06/17 12:20:50;;;;;;;;;;;;;;;27.49;37.58;100581.00;1731878;81;20222;-54
2022/06/17 12:23:57;;;;;;;;;;;;;;;27.52;37.55;100573.41;1675732;85;20662;-54
2022/06/17 12:27:30;;;;;;;;;;;;;;;27.52;37.45;100570.59;1726998;82;20511;-53
2022/06/17 12:30:57;;;;;;;;;;;;;;;27.52;37.38;100568.33;1727084;80;20204;-55
2022/06/17 12:34:21;;;;;;;;;;;;;;;27.46;37.29;100559.63;1725855;80;20216;-55
2022/06/17 12:37:39;;;;;;;;;;;;;;;27.40;37.20;100555.95;1767175;79;20199;-55
2022/06/17 12:41:03;;;;;;;;;;;;;;;27.35;37.15;100558.76;1692222;82;20272;-54
2022/06/17 12:44:20;;;;;;;;;;;;;;;27.28;37.19;100552.59;1733761;81;20253;-55
2022/06/17 12:47:28;;;;;;;;;;;;;;;27.22;37.17;100548.06;1694216;84;20225;-55
2022/06/17 12:54:14;;;;;;;;;;;;;;;27.08;37.27;100538.51;1756339;80;20201;-54
2022/06/17 12:57:32;;;;;;;;;;;;;;;27.05;37.30;100549.46;1737290;82;20253;-54
2022/06/17 13:00:47;;;;;;;;;;;;;;;27.03;37.27;100544.12;1715181;81;20216;-55
2022/06/17 13:04:16;;;;;;;;;;;;;;;27.08;37.25;100539.92;1721595;80;20672;-53
2022/06/17 13:07:36;;;;;;;;;;;;;;;27.20;37.19;100531.18;1716412;80;20449;-57
2022/06/17 13:11:04;;;;;;;;;;;;;;;27.45;37.11;100529.23;1713964;83;20219;-57
2022/06/17 13:14:23;;;;;;;;;;;;;;;27.55;36.88;100517.98;1700663;82;20575;-56
2022/06/17 13:17:47;;;;;;;;;;;;;;;27.46;36.74;100523.88;1747214;81;20271;-57
2022/06/17 13:21:12;;;;;;;;;;;;;;;27.33;36.66;100517.45;1745553;81;20249;-56
2022/06/17 13:24:32;;;;;;;;;;;;;;;27.21;36.60;100512.63;1727158;81;20605;-56
2022/06/17 13:27:47;;;;;;;;;;;;;;;27.08;36.56;100509.00;1739749;81;20533;-56
2022/06/17 13:30:56;;;;;;;;;;;;;;;26.97;36.51;100507.86;1757066;80;20275;-56
2022/06/17 13:34:07;;;;;;;;;;;;;;;26.89;36.47;100507.86;1754464;81;20219;-56
2022/06/17 13:37:17;;;;;;;;;;;;;;;26.81;36.42;100504.20;1716365;83;20922;-56
2022/06/17 13:40:34;;;;;;;;;;;;;;;26.82;36.41;100504.47;1686426;85;20199;-57
2022/06/17 13:43:50;;;;;;;;;;;;;;;26.90;36.40;100502.51;1691683;82;20549;-56
2022/06/17 13:47:07;;;;;;;;;;;;;;;27.14;36.33;100491.00;1709533;82;20206;-55
2022/06/17 13:50:47;;;;;;;;;;;;;;;27.42;36.18;100496.61;1684452;85;20258;-56
2022/06/17 13:54:16;;;;;;;;;;;;;;;27.65;36.06;100487.58;1695773;84;20215;-54
2022/06/17 13:57:32;;;;;;;;;;;;;;;27.89;35.80;100484.45;1714081;84;20220;-55
2022/06/17 14:00:43;;;;;;;;;;;;;;;27.96;35.65;100482.15;1720682;82;20172;-55
2022/06/17 14:04:05;;;;;;;;;;;;;;;28.07;35.46;100480.16;1705126;82;20246;-55
2022/06/17 14:07:11;;;;;;;;;;;;;;;28.17;35.35;100474.45;1711265;84;20208;-55
2022/06/17 14:10:27;;;;;;;;;;;;;;;28.23;35.27;100471.88;1712146;84;20200;-55
2022/06/17 14:13:40;;;;;;;;;;;;;;;28.26;35.16;100478.38;1711773;83;20217;-55
2022/06/17 14:16:44;;;;;;;;;;;;;;;28.17;35.00;100473.05;1710963;82;20596;-54
2022/06/17 14:19:57;;;;;;;;;;;;;;;28.01;34.90;100470.87;1703019;84;20583;-54
2022/06/17 14:23:15;;;;;;;;;;;;;;;27.80;34.84;100466.41;1694429;84;20256;-56
2022/06/17 14:26:54;;;;;;;;;;;;;;;27.58;34.84;100465.92;1699126;83;20553;-55
2022/06/17 14:30:20;;;;;;;;;;;;;;;27.45;34.85;100468.77;1711576;83;20212;-55
2022/06/17 14:33:26;;;;;;;;;;;;;;;27.36;34.82;100470.48;1685226;85;20298;-55
2022/06/17 14:36:56;;;;;;;;;;;;;;;27.30;34.78;100464.59;1704560;84;20468;-55
2022/06/17 14:40:01;;;;;;;;;;;;;;;27.28;34.75;100461.21;1704654;81;20512;-55
2022/06/17 14:43:22;;;;;;;;;;;;;;;27.21;34.68;100459.20;1699716;84;20221;-55
2022/06/17 14:46:28;;;;;;;;;;;;;;;27.14;34.68;100462.03;1699284;84;20278;-55
2022/06/17 14:49:47;;;;;;;;;;;;;;;27.11;34.66;100467.67;1721340;83;20199;-54
2022/06/17 14:53:08;;;;;;;;;;;;;;;27.14;34.66;100459.22;1727990;82;20634;-55
2022/06/17 14:56:26;;;;;;;;;;;;;;;27.15;34.65;100459.48;1729611;81;20214;-55
2022/06/17 14:59:43;;;;;;;;;;;;;;;27.16;34.56;100464.83;1722402;81;20218;-55
2022/06/17 15:02:51;;;;;;;;;;;;;;;27.14;34.53;100458.67;1721972;82;20227;-55
2022/06/17 15:05:55;;;;;;;;;;;;;;;27.11;34.50;100462.05;1722258;82;20187;-55
2022/06/17 15:09:02;;;;;;;;;;;;;;;27.05;34.49;100463.15;1722305;83;20215;-55
2022/06/17 15:12:15;;;;;;;;;;;;;;;26.98;34.45;100461.20;1708810;82;20569;-55
2022/06/17 15:15:28;;;;;;;;;;;;;;;26.91;34.46;100461.21;1663908;85;20203;-55
2022/06/17 15:18:33;;;;;;;;;;;;;;;26.82;34.46;100470.75;1728415;82;20206;-53
2022/06/17 15:21:40;;;;;;;;;;;;;;;26.73;34.44;100465.41;1733900;81;20213;-53
2022/06/17 15:24:53;;;;;;;;;;;;;;;26.67;34.47;100464.28;1747931;81;20582;-53
2022/06/17 15:28:35;;;;;;;;;;;;;;;26.63;34.49;100471.53;1711911;82;20494;-53
2022/06/17 15:31:44;;;;;;;;;;;;;;;26.60;34.51;100470.69;1726728;82;20206;-53
2022/06/17 15:34:55;;;;;;;;;;;;;;;26.57;34.56;100465.08;1715438;83;20247;-53
2022/06/17 15:38:08;;;;;;;;;;;;;;;26.58;34.56;100469.56;1702956;83;20222;-54
2022/06/17 15:41:34;;;;;;;;;;;;;;;26.60;34.55;100458.91;1735065;81;20197;-54
2022/06/17 15:44:43;;;;;;;;;;;;;;;26.64;34.55;100462.86;1755076;81;20193;-54
2022/06/17 15:48:02;;;;;;;;;;;;;;;26.66;34.54;100463.43;1764265;79;20276;-54
2022/06/17 15:51:07;;;;;;;;;;;;;;;26.68;34.62;100457.53;1755497;79;20568;-53
2022/06/17 15:54:12;;;;;;;;;;;;;;;26.77;34.62;100462.31;1761939;80;20205;-53
2022/06/17 15:57:36;;;;;;;;;;;;;;;26.83;34.66;100458.96;1768480;80;20210;-54
2022/06/17 16:00:46;;;;;;;;;;;;;;;26.90;34.81;100456.70;1727727;82;20227;-54
2022/06/17 16:04:02;;;;;;;;;;;;;;;27.11;34.92;100455.58;1758056;80;20202;-54
2022/06/17 16:07:27;;;;;;;;;;;;;;;27.30;35.04;100454.75;1747931;81;20231;-54
2022/06/17 16:10:35;;;;;;;;;;;;;;;27.40;35.08;100451.89;1754578;79;20187;-54
2022/06/17 16:13:42;;;;;;;;;;;;;;;27.45;35.02;100454.70;1726163;81;20214;-55
2022/06/17 16:16:57;;;;;;;;;;;;;;;27.53;35.15;100458.34;1725521;82;20246;-55
2022/06/17 16:20:05;;;;;;;;;;;;;;;28.19;34.88;100455.30;1725652;82;20266;-56
2022/06/17 16:23:34;;;;;;;;;;;;;;;29.23;34.27;100459.94;1725151;82;20250;-54
2022/06/17 16:26:37;;;;;;;;;;;;;;;30.17;33.73;100452.95;1725549;82;20263;-54
2022/06/17 16:29:52;;;;;;;;;;;;;;;31.02;33.22;100452.82;1725967;82;20218;-54
2022/06/17 16:33:00;;;;;;;;;;;;;;;31.66;32.80;100445.16;1692559;84;20556;-55
2022/06/17 16:36:10;;;;;;;;;;;;;;;32.10;32.26;100450.20;1672590;85;20575;-55
2022/06/17 16:39:22;;;;;;;;;;;;;;;31.62;32.23;100449.75;1743629;81;20565;-55